Time;durP1;ratioP1;P1;durP2;ratioP2;P2;SDS_P1;SDS_P2;PMS_P1;PMS_P2;Temp;Humidity;BMP_temperature;BMP_pressure;BME280_temperature;BME280_humidity;BME280_pressure;Samples;Min_cycle;Max_cycle;Signal;HPM_P1;HPM_P2
2023/07/06 00:01:10;;;;;;;5.00;2.05;;;14.40;99.90;;;;;;4958970;28;20062;-66
2023/07/06 00:03:36;;;;;;;1.98;1.45;;;14.40;99.90;;;;;;4951616;28;20058;-62
2023/07/06 00:06:09;;;;;;;2.58;1.40;;;14.40;99.90;;;;;;4956370;28;20066;-63
2023/07/06 00:08:37;;;;;;;2.25;1.33;;;14.40;99.90;;;;;;4957012;28;20066;-63
2023/07/06 00:11:04;;;;;;;3.80;1.40;;;14.40;99.90;;;;;;4953461;28;20141;-62
2023/07/06 00:13:30;;;;;;;4.80;2.08;;;14.30;99.90;;;;;;4946810;28;20860;-64
2023/07/06 00:15:56;;;;;;;3.60;1.10;;;14.30;99.90;;;;;;4960768;28;20026;-65
2023/07/06 00:18:22;;;;;;;3.72;1.40;;;14.40;99.90;;;;;;4956258;28;20038;-64
2023/07/06 00:20:49;;;;;;;11.70;1.88;;;14.30;99.90;;;;;;4958861;28;20019;-63
2023/07/06 00:23:15;;;;;;;2.38;1.23;;;14.30;99.90;;;;;;4953247;28;20038;-63
2023/07/06 00:25:41;;;;;;;2.20;1.05;;;14.30;99.90;;;;;;4959640;28;20027;-64
2023/07/06 00:28:08;;;;;;;5.32;1.35;;;14.20;99.90;;;;;;4936429;28;20047;-64
2023/07/06 00:33:13;;;;;;;1.75;0.90;;;14.00;99.90;;;;;;4955076;28;20497;-64
2023/07/06 00:35:40;;;;;;;4.90;1.40;;;13.90;99.90;;;;;;4956209;28;20127;-63
2023/07/06 00:38:10;;;;;;;2.08;1.48;;;13.80;99.90;;;;;;4954751;28;20033;-64
2023/07/06 00:40:39;;;;;;;4.20;1.50;;;13.70;99.90;;;;;;4956980;28;20094;-65
2023/07/06 00:43:06;;;;;;;4.88;1.23;;;13.70;99.90;;;;;;4953164;28;20384;-63
2023/07/06 00:45:33;;;;;;;4.10;1.42;;;13.60;99.90;;;;;;4958662;28;20027;-64
2023/07/06 00:48:00;;;;;;;2.08;1.40;;;13.50;99.90;;;;;;4958345;28;20109;-65
2023/07/06 00:50:28;;;;;;;5.70;1.75;;;13.50;99.90;;;;;;4956257;28;20031;-64
2023/07/06 00:53:03;;;;;;;2.50;1.55;;;13.40;99.90;;;;;;4956159;28;20070;-66
2023/07/06 00:55:42;;;;;;;4.45;1.60;;;13.30;99.90;;;;;;4959256;28;20548;-65
2023/07/06 00:58:18;;;;;;;5.13;1.60;;;13.20;99.90;;;;;;4950608;28;20062;-65
2023/07/06 01:00:44;;;;;;;4.38;1.58;;;13.00;99.90;;;;;;4958883;28;20031;-64
2023/07/06 01:03:11;;;;;;;2.13;1.25;;;13.00;99.90;;;;;;4958919;28;20023;-65
2023/07/06 01:05:39;;;;;;;3.15;1.70;;;12.90;99.90;;;;;;4955091;28;20094;-65
2023/07/06 01:08:12;;;;;;;2.40;1.63;;;12.80;99.90;;;;;;4958731;28;20030;-64
2023/07/06 01:10:39;;;;;;;3.33;1.60;;;12.60;99.90;;;;;;4950948;28;20047;-65
2023/07/06 01:13:07;;;;;;;2.83;1.50;;;12.50;99.90;;;;;;4953094;28;20031;-65
2023/07/06 01:15:45;;;;;;;3.60;1.70;;;12.50;99.90;;;;;;4953243;28;20023;-65
2023/07/06 01:18:35;;;;;;;3.25;1.80;;;12.40;99.90;;;;;;4960941;28;20031;-65
2023/07/06 01:21:19;;;;;;;4.10;1.88;;;12.30;99.90;;;;;;4953462;28;20386;-66
2023/07/06 01:23:54;;;;;;;2.70;1.75;;;12.20;99.90;;;;;;4957638;28;20553;-65
2023/07/06 01:26:50;;;;;;;2.40;1.65;;;12.20;99.90;;;;;;4953944;28;20086;-65
2023/07/06 01:29:24;;;;;;;3.72;1.60;;;12.10;99.90;;;;;;4929448;28;20047;-65
2023/07/06 01:31:58;;;;;;;5.82;2.03;;;12.10;99.90;;;;;;4955222;28;20050;-63
2023/07/06 01:34:44;;;;;;;2.88;1.80;;;12.10;99.90;;;;;;4953426;28;20027;-65
2023/07/06 01:37:31;;;;;;;5.70;2.08;;;12.20;99.90;;;;;;4941412;28;20051;-65
2023/07/06 01:39:59;;;;;;;5.93;1.63;;;12.30;99.90;;;;;;4963849;28;20116;-64
2023/07/06 01:42:25;;;;;;;4.43;1.60;;;12.40;99.90;;;;;;4956480;28;20058;-64
2023/07/06 01:44:52;;;;;;;4.32;1.80;;;12.50;99.90;;;;;;4952657;28;20054;-65
2023/07/06 01:47:19;;;;;;;4.20;1.63;;;12.50;99.90;;;;;;4956633;28;20113;-64
2023/07/06 01:49:47;;;;;;;2.60;1.50;;;12.50;99.90;;;;;;4958737;28;20117;-64
2023/07/06 01:52:55;;;;;;;3.80;1.40;;;12.50;99.90;;;;;;4962250;28;20035;-65
2023/07/06 01:55:52;;;;;;;7.78;2.13;;;12.40;99.90;;;;;;4929907;28;20118;-66
2023/07/06 01:58:27;;;;;;;3.95;1.77;;;12.30;99.90;;;;;;4956877;28;20396;-65
2023/07/06 02:00:58;;;;;;;3.50;1.90;;;12.20;99.90;;;;;;4960752;28;20102;-64
2023/07/06 02:03:25;;;;;;;7.45;1.67;;;12.10;99.90;;;;;;4957366;28;20028;-64
2023/07/06 02:05:51;;;;;;;5.28;2.15;;;12.00;99.90;;;;;;4965395;28;20710;-64
2023/07/06 02:08:18;;;;;;;3.65;2.17;;;12.00;99.90;;;;;;4963622;28;20047;-65
2023/07/06 02:10:44;;;;;;;2.80;1.55;;;11.90;99.90;;;;;;4963525;28;20031;-64
2023/07/06 02:13:09;;;;;;;6.20;2.15;;;11.80;99.90;;;;;;4951875;28;20078;-65
2023/07/06 02:15:35;;;;;;;9.35;2.97;;;11.80;99.90;;;;;;4965144;28;20033;-65
2023/07/06 02:18:02;;;;;;;4.30;2.03;;;11.70;99.90;;;;;;4955983;28;20081;-65
2023/07/06 02:20:29;;;;;;;4.90;2.20;;;11.70;99.90;;;;;;4959264;28;20047;-64
2023/07/06 02:22:54;;;;;;;3.10;1.95;;;11.70;99.90;;;;;;4961922;28;20023;-65
2023/07/06 02:25:20;;;;;;;4.43;2.38;;;11.60;99.90;;;;;;4961001;28;20083;-66
2023/07/06 02:27:46;;;;;;;4.15;2.25;;;11.60;99.90;;;;;;4937588;28;20086;-65
2023/07/06 02:30:12;;;;;;;5.47;2.70;;;11.50;99.90;;;;;;4953604;28;20026;-66
2023/07/06 02:32:39;;;;;;;3.78;2.17;;;11.50;99.90;;;;;;4955928;28;20026;-64
2023/07/06 02:35:06;;;;;;;6.15;2.20;;;11.50;99.90;;;;;;4958558;28;20400;-64
2023/07/06 02:37:32;;;;;;;12.93;2.53;;;11.50;99.90;;;;;;4959132;28;20018;-64
2023/07/06 02:39:58;;;;;;;4.88;2.40;;;11.50;99.90;;;;;;4960811;28;20453;-64
2023/07/06 02:42:24;;;;;;;3.58;2.03;;;11.50;99.90;;;;;;4953087;28;20496;-64
2023/07/06 02:44:50;;;;;;;5.45;2.63;;;11.60;99.90;;;;;;4956401;28;20480;-64
2023/07/06 02:47:16;;;;;;;6.93;2.83;;;11.60;99.90;;;;;;4958857;28;20070;-64
2023/07/06 02:49:41;;;;;;;4.03;2.30;;;11.70;99.90;;;;;;4962861;28;20022;-64
2023/07/06 02:52:07;;;;;;;6.63;2.45;;;11.80;99.90;;;;;;4952845;28;20401;-65
2023/07/06 02:54:32;;;;;;;6.82;2.42;;;11.80;99.90;;;;;;4959132;28;20031;-64
2023/07/06 02:57:00;;;;;;;5.75;2.58;;;11.80;99.90;;;;;;4957099;28;20062;-65
2023/07/06 02:59:32;;;;;;;7.25;2.47;;;11.80;99.90;;;;;;4960273;28;20093;-66
2023/07/06 03:01:58;;;;;;;3.60;1.75;;;11.80;99.90;;;;;;4967237;28;20110;-65
2023/07/06 03:04:25;;;;;;;4.03;1.73;;;11.80;99.90;;;;;;4963276;28;20126;-65
2023/07/06 03:06:51;;;;;;;3.55;1.92;;;11.70;99.90;;;;;;4961522;28;20022;-65
2023/07/06 03:09:17;;;;;;;4.50;1.90;;;11.60;99.90;;;;;;4963279;28;20033;-65
2023/07/06 03:11:44;;;;;;;3.13;2.20;;;11.60;99.90;;;;;;4967990;28;20023;-65
2023/07/06 03:14:11;;;;;;;7.72;2.80;;;11.50;99.90;;;;;;4965192;28;20392;-65
2023/07/06 03:16:40;;;;;;;4.18;1.92;;;11.50;99.90;;;;;;4962082;28;20091;-63
2023/07/06 03:19:10;;;;;;;3.38;2.00;;;11.40;99.90;;;;;;4965124;28;20520;-63
2023/07/06 03:21:38;;;;;;;4.25;2.40;;;11.40;99.90;;;;;;4960907;28;20058;-65
2023/07/06 03:24:07;;;;;;;4.40;2.60;;;11.30;99.90;;;;;;4968847;28;20106;-64
2023/07/06 03:26:34;;;;;;;8.82;2.40;;;11.30;99.90;;;;;;4966152;28;20027;-64
2023/07/06 03:29:03;;;;;;;4.88;2.30;;;11.30;99.90;;;;;;4938438;28;20031;-61
2023/07/06 03:31:30;;;;;;;5.13;2.55;;;11.30;99.90;;;;;;4970054;28;20454;-64
2023/07/06 03:33:56;;;;;;;5.72;2.22;;;11.30;99.90;;;;;;4958050;28;20114;-64
2023/07/06 03:36:22;;;;;;;5.70;2.28;;;11.30;99.90;;;;;;4956450;28;20110;-64
2023/07/06 03:38:49;;;;;;;6.32;2.40;;;11.30;99.90;;;;;;4960842;28;20204;-64
2023/07/06 03:41:16;;;;;;;5.03;2.50;;;11.30;99.90;;;;;;4960253;28;20035;-66
2023/07/06 03:43:42;;;;;;;4.32;2.75;;;11.20;99.90;;;;;;4961136;28;20031;-64
2023/07/06 03:46:08;;;;;;;4.28;2.60;;;11.20;99.90;;;;;;4960861;28;20031;-64
2023/07/06 03:48:33;;;;;;;5.35;2.65;;;11.20;99.90;;;;;;4956715;28;20489;-66
2023/07/06 03:51:05;;;;;;;5.50;2.60;;;11.20;99.90;;;;;;4961002;28;20093;-65
2023/07/06 03:53:31;;;;;;;2.80;2.00;;;11.20;99.90;;;;;;4961086;28;20445;-64
2023/07/06 03:55:58;;;;;;;3.80;2.50;;;11.30;99.90;;;;;;4969660;28;20114;-65
2023/07/06 03:58:24;;;;;;;4.78;2.28;;;11.30;99.90;;;;;;4971442;28;20105;-65
2023/07/06 04:00:49;;;;;;;6.82;2.00;;;11.30;99.90;;;;;;4966701;28;20169;-64
2023/07/06 04:03:15;;;;;;;5.57;2.30;;;11.40;99.90;;;;;;4966191;28;20027;-64
2023/07/06 04:05:47;;;;;;;4.88;2.20;;;11.40;99.90;;;;;;4961660;28;20031;-64
2023/07/06 04:08:17;;;;;;;7.38;2.70;;;11.50;99.90;;;;;;4965606;28;20074;-64
2023/07/06 04:10:42;;;;;;;3.95;2.40;;;11.50;99.90;;;;;;4964433;28;20110;-66
2023/07/06 04:13:10;;;;;;;9.80;2.60;;;11.60;99.90;;;;;;4964220;28;20513;-61
2023/07/06 04:15:37;;;;;;;3.33;2.20;;;11.60;99.90;;;;;;4960882;28;20019;-63
2023/07/06 04:18:05;;;;;;;2.80;2.03;;;11.70;99.90;;;;;;4960384;28;20027;-65
2023/07/06 04:20:31;;;;;;;9.02;2.13;;;11.80;99.90;;;;;;4965730;28;20034;-64
2023/07/06 04:22:58;;;;;;;6.28;3.25;;;11.90;99.90;;;;;;4960565;28;20448;-65
2023/07/06 04:25:32;;;;;;;3.45;1.90;;;11.90;99.90;;;;;;4968626;28;20392;-63
2023/07/06 04:28:02;;;;;;;5.18;2.20;;;12.00;99.90;;;;;;4958233;28;20086;-66
2023/07/06 04:30:29;;;;;;;9.27;3.08;;;12.10;99.90;;;;;;4940786;28;20087;-64
2023/07/06 04:32:55;;;;;;;3.33;2.08;;;12.20;99.90;;;;;;4961074;28;20026;-65
2023/07/06 04:35:22;;;;;;;4.70;2.13;;;12.40;99.90;;;;;;4960602;28;20027;-67
2023/07/06 04:37:49;;;;;;;2.75;1.75;;;12.60;99.90;;;;;;4955274;28;20519;-66
2023/07/06 04:40:18;;;;;;;6.53;3.00;;;13.60;99.90;;;;;;4959564;28;20031;-64
2023/07/06 04:42:46;;;;;;;5.63;1.42;;;14.90;99.90;;;;;;4965432;28;20034;-66
2023/07/06 04:45:13;;;;;;;2.38;1.52;;;16.20;99.90;;;;;;4958261;28;20575;-67
2023/07/06 04:47:40;;;;;;;2.60;1.50;;;17.00;99.90;;;;;;4957894;28;20038;-65
2023/07/06 04:50:23;;;;;;;3.08;1.20;;;17.90;99.90;;;;;;4959672;28;20067;-65
2023/07/06 04:52:53;;;;;;;4.30;1.40;;;19.80;99.90;;;;;;4957559;28;20026;-66
2023/07/06 04:55:23;;;;;;;3.08;1.20;;;21.10;98.60;;;;;;4960330;28;20493;-66
2023/07/06 04:57:54;;;;;;;3.80;0.90;;;22.30;96.60;;;;;;4962914;28;20476;-68
2023/07/06 05:00:26;;;;;;;3.95;1.38;;;23.60;93.20;;;;;;4955495;28;20034;-65
2023/07/06 05:03:00;;;;;;;3.67;1.55;;;23.50;91.80;;;;;;4960564;28;20432;-66
2023/07/06 05:05:28;;;;;;;4.93;1.10;;;23.60;90.60;;;;;;4965278;28;20034;-63
2023/07/06 05:07:55;;;;;;;6.15;1.75;;;23.60;90.90;;;;;;4958933;28;20054;-63
2023/07/06 05:10:21;;;;;;;5.07;1.35;;;23.40;91.70;;;;;;4962355;28;20018;-63
2023/07/06 05:12:47;;;;;;;2.72;0.98;;;24.30;90.40;;;;;;4955477;28;20511;-64
2023/07/06 05:15:14;;;;;;;1.35;0.82;;;24.10;87.40;;;;;;4959322;28;20033;-63
2023/07/06 05:17:40;;;;;;;2.25;0.90;;;24.40;84.00;;;;;;4957180;28;20027;-64
2023/07/06 05:20:08;;;;;;;5.45;1.10;;;25.20;85.70;;;;;;4953337;28;20073;-61
2023/07/06 05:22:39;;;;;;;1.63;0.90;;;25.10;83.10;;;;;;4955359;28;20037;-65
2023/07/06 05:25:10;;;;;;;3.30;1.20;;;27.00;79.10;;;;;;4958477;28;20062;-62
2023/07/06 05:27:36;;;;;;;2.42;0.90;;;27.60;75.50;;;;;;4953293;28;20054;-64
2023/07/06 05:30:03;;;;;;;3.03;1.50;;;27.90;75.70;;;;;;4932094;28;20633;-66
2023/07/06 05:32:29;;;;;;;5.50;1.30;;;28.10;74.40;;;;;;4953231;28;20042;-64
2023/07/06 05:34:55;;;;;;;6.25;1.52;;;27.90;73.30;;;;;;4951366;28;20038;-64
2023/07/06 05:37:20;;;;;;;4.30;1.20;;;27.50;74.10;;;;;;4953767;28;20031;-64
2023/07/06 05:39:46;;;;;;;4.65;1.23;;;27.80;72.40;;;;;;4961928;28;20055;-63
2023/07/06 05:42:13;;;;;;;3.65;1.10;;;26.50;73.70;;;;;;4961928;28;20038;-65
2023/07/06 05:44:38;;;;;;;4.97;1.20;;;27.90;73.10;;;;;;4955139;28;20030;-63
2023/07/06 05:47:05;;;;;;;2.08;1.20;;;28.00;71.30;;;;;;4961780;28;20109;-59
2023/07/06 05:49:30;;;;;;;2.00;1.13;;;28.90;70.10;;;;;;4966534;28;20026;-64
2023/07/06 05:51:56;;;;;;;3.15;1.13;;;29.50;69.20;;;;;;4962195;28;20711;-65
2023/07/06 05:54:21;;;;;;;3.35;1.30;;;30.60;68.40;;;;;;4963870;28;20508;-63
2023/07/06 05:56:48;;;;;;;3.83;1.10;;;29.40;68.00;;;;;;4966590;28;20038;-63
2023/07/06 05:59:15;;;;;;;2.22;0.95;;;28.50;67.10;;;;;;4959430;28;20173;-64
2023/07/06 06:01:41;;;;;;;5.15;1.08;;;27.40;70.00;;;;;;4954024;28;20068;-63
2023/07/06 06:04:07;;;;;;;2.25;1.00;;;27.10;72.10;;;;;;4963969;28;20113;-64
2023/07/06 06:06:54;;;;;;;1.80;1.00;;;28.00;69.80;;;;;;4950319;28;20042;-64
2023/07/06 06:09:21;;;;;;;5.18;1.20;;;27.70;72.10;;;;;;4961868;28;20018;-64
2023/07/06 06:11:48;;;;;;;4.15;1.10;;;27.70;68.50;;;;;;4957102;28;20399;-63
2023/07/06 06:14:14;;;;;;;6.00;1.20;;;26.80;69.20;;;;;;4957465;28;20023;-64
2023/07/06 06:16:40;;;;;;;2.70;0.93;;;26.20;69.70;;;;;;4951522;28;20034;-64
2023/07/06 06:19:07;;;;;;;3.42;1.38;;;25.90;70.60;;;;;;4952853;28;20058;-62
2023/07/06 06:21:33;;;;;;;4.97;1.05;;;26.00;70.90;;;;;;4948259;28;20035;-64
2023/07/06 06:24:00;;;;;;;2.10;1.15;;;25.80;71.10;;;;;;4950341;28;20038;-64
2023/07/06 06:26:26;;;;;;;4.10;1.05;;;25.30;71.20;;;;;;4963648;28;20508;-63
2023/07/06 06:28:52;;;;;;;3.33;1.30;;;25.40;71.10;;;;;;4942847;28;20051;-64
2023/07/06 06:31:18;;;;;;;4.53;1.83;;;25.50;71.40;;;;;;4956404;28;20119;-63
2023/07/06 06:33:45;;;;;;;4.18;1.13;;;26.40;70.20;;;;;;4958226;28;20480;-64
2023/07/06 06:36:12;;;;;;;3.10;1.20;;;26.60;67.90;;;;;;4952542;28;20481;-64
2023/07/06 06:38:39;;;;;;;2.80;1.33;;;26.50;67.80;;;;;;4955695;28;20058;-65
2023/07/06 06:41:08;;;;;;;5.63;1.55;;;26.40;68.70;;;;;;4960792;28;20058;-61
2023/07/06 06:43:38;;;;;;;2.97;1.35;;;26.60;67.90;;;;;;4965173;28;20031;-64
2023/07/06 06:46:05;;;;;;;4.68;1.35;;;26.80;68.70;;;;;;4957090;28;20025;-62
2023/07/06 06:48:32;;;;;;;5.43;1.17;;;27.30;68.00;;;;;;4959100;28;20034;-64
2023/07/06 06:50:58;;;;;;;5.68;1.08;;;27.90;66.00;;;;;;4960160;28;20027;-64
2023/07/06 06:53:24;;;;;;;3.75;1.20;;;28.00;67.00;;;;;;4958859;28;20480;-64
2023/07/06 06:55:50;;;;;;;2.17;1.30;;;27.40;64.80;;;;;;4958072;28;20046;-65
2023/07/06 06:58:16;;;;;;;5.22;1.13;;;27.60;65.70;;;;;;4961687;28;20026;-64
2023/07/06 07:00:44;;;;;;;2.90;0.95;;;28.20;64.70;;;;;;4959490;28;20054;-64
2023/07/06 07:03:13;;;;;;;3.90;1.27;;;28.00;64.60;;;;;;4959312;28;20543;-64
2023/07/06 07:05:39;;;;;;;3.53;1.15;;;27.50;64.70;;;;;;4963664;28;20110;-65
2023/07/06 07:08:04;;;;;;;2.60;1.20;;;27.40;65.90;;;;;;4957664;28;20905;-64
2023/07/06 07:10:30;;;;;;;2.25;1.17;;;27.30;66.60;;;;;;4958729;28;20109;-64
2023/07/06 07:12:56;;;;;;;2.17;1.02;;;26.80;65.40;;;;;;4965240;28;20026;-64
2023/07/06 07:15:23;;;;;;;4.85;2.13;;;26.90;66.80;;;;;;4964849;28;20029;-63
2023/07/06 07:17:51;;;;;;;2.92;1.17;;;27.70;65.00;;;;;;4963302;28;20026;-64
2023/07/06 07:20:17;;;;;;;1.60;1.00;;;28.10;64.90;;;;;;4965026;28;20034;-63
2023/07/06 07:22:44;;;;;;;2.80;1.30;;;29.00;65.10;;;;;;4966994;28;20031;-62
2023/07/06 07:25:10;;;;;;;2.60;1.17;;;29.90;62.60;;;;;;4953019;28;20058;-64
2023/07/06 07:27:37;;;;;;;2.88;1.20;;;29.90;63.10;;;;;;4959358;28;20039;-64
2023/07/06 07:30:08;;;;;;;2.38;1.10;;;30.40;62.50;;;;;;4949112;28;20047;-62
2023/07/06 07:32:34;;;;;;;2.65;1.00;;;29.80;61.60;;;;;;4953544;28;20019;-65
2023/07/06 07:35:00;;;;;;;4.90;1.75;;;29.40;61.50;;;;;;4962659;28;20034;-66
2023/07/06 07:37:26;;;;;;;1.55;1.05;;;29.40;61.80;;;;;;4960018;28;20112;-64
2023/07/06 07:39:51;;;;;;;3.50;1.30;;;29.50;60.50;;;;;;4958228;28;20035;-65
2023/07/06 07:42:19;;;;;;;2.63;1.13;;;29.30;61.40;;;;;;4953803;28;20058;-63
2023/07/06 07:44:45;;;;;;;5.10;1.23;;;29.90;60.80;;;;;;4960399;28;20527;-65
2023/07/06 07:47:12;;;;;;;1.58;0.88;;;29.80;60.50;;;;;;4955146;28;20031;-64
2023/07/06 07:49:38;;;;;;;2.10;1.00;;;30.30;59.50;;;;;;4966426;28;20114;-63
2023/07/06 07:52:09;;;;;;;3.33;1.05;;;30.30;59.30;;;;;;4964869;28;20058;-61
2023/07/06 07:54:35;;;;;;;3.05;1.20;;;31.00;59.60;;;;;;4968410;28;20031;-65
2023/07/06 07:57:00;;;;;;;3.03;1.08;;;30.70;57.50;;;;;;4970056;28;20030;-64
2023/07/06 07:59:26;;;;;;;3.88;1.08;;;29.80;58.20;;;;;;4971153;28;20037;-64
2023/07/06 08:01:52;;;;;;;2.97;1.30;;;29.60;60.90;;;;;;4961286;28;20035;-63
2023/07/06 08:04:20;;;;;;;1.67;1.15;;;30.20;59.40;;;;;;4967853;28;20095;-64
2023/07/06 08:06:45;;;;;;;3.10;1.17;;;30.80;59.20;;;;;;4956966;28;20078;-64
2023/07/06 08:09:13;;;;;;;2.90;1.17;;;30.20;58.60;;;;;;4961809;28;20035;-65
2023/07/06 08:11:41;;;;;;;1.58;1.10;;;30.80;58.80;;;;;;4965004;28;20029;-64
2023/07/06 08:14:10;;;;;;;3.92;1.42;;;30.40;57.70;;;;;;4964445;28;20548;-64
2023/07/06 08:16:36;;;;;;;3.75;0.93;;;30.30;57.70;;;;;;4957070;28;20042;-64
2023/07/06 08:19:05;;;;;;;5.90;1.63;;;29.40;58.80;;;;;;4958923;28;20037;-63
2023/07/06 08:21:31;;;;;;;2.22;0.95;;;30.70;56.60;;;;;;4961031;28;20507;-63
2023/07/06 08:23:58;;;;;;;3.03;1.73;;;29.80;57.60;;;;;;4964126;28;20122;-64
2023/07/06 08:26:29;;;;;;;1.63;1.00;;;30.00;58.70;;;;;;4965789;28;20030;-65
2023/07/06 08:28:55;;;;;;;3.60;1.35;;;30.40;57.40;;;;;;4947163;28;20571;-65
2023/07/06 08:31:21;;;;;;;3.10;1.15;;;30.30;57.80;;;;;;4959748;28;20054;-63
2023/07/06 08:33:48;;;;;;;3.92;1.05;;;30.20;56.20;;;;;;4960299;28;20042;-64
2023/07/06 08:36:15;;;;;;;5.20;1.10;;;29.50;57.20;;;;;;4957444;28;20556;-64
2023/07/06 08:38:43;;;;;;;3.75;1.30;;;29.60;58.80;;;;;;4963449;28;20034;-64
2023/07/06 08:41:26;;;;;;;2.47;1.33;;;29.60;57.70;;;;;;4961188;28;20031;-65
2023/07/06 08:43:52;;;;;;;2.67;1.17;;;29.70;59.40;;;;;;4967337;28;20027;-64
2023/07/06 08:46:18;;;;;;;2.50;1.10;;;29.90;57.30;;;;;;4962551;28;20027;-64
2023/07/06 08:48:44;;;;;;;1.42;1.02;;;30.70;56.60;;;;;;4962207;28;20099;-65
2023/07/06 08:51:09;;;;;;;1.92;0.90;;;30.00;56.80;;;;;;4956921;28;20063;-64
2023/07/06 08:53:35;;;;;;;8.68;1.10;;;29.70;57.00;;;;;;4960485;28;20034;-65
2023/07/06 08:56:08;;;;;;;4.65;1.83;;;29.40;57.60;;;;;;4965103;28;20030;-66
2023/07/06 08:58:34;;;;;;;1.48;0.93;;;29.50;59.20;;;;;;4971359;28;20663;-66
2023/07/06 09:01:06;;;;;;;2.45;1.52;;;29.60;58.40;;;;;;4960990;28;20396;-65
2023/07/06 09:03:39;;;;;;;3.33;1.10;;;29.90;57.50;;;;;;4964871;28;20023;-64
2023/07/06 09:06:06;;;;;;;3.42;1.00;;;30.80;56.40;;;;;;4958639;28;20700;-63
2023/07/06 09:08:32;;;;;;;2.00;1.30;;;31.00;57.00;;;;;;4958514;28;20102;-63
2023/07/06 09:10:58;;;;;;;1.42;0.88;;;30.90;56.80;;;;;;4964162;28;20408;-64
2023/07/06 09:13:26;;;;;;;3.20;0.80;;;29.60;57.70;;;;;;4958361;28;20042;-65
2023/07/06 09:16:00;;;;;;;3.25;1.00;;;29.40;57.20;;;;;;4965481;28;20452;-65
2023/07/06 09:18:28;;;;;;;2.15;0.85;;;29.40;56.60;;;;;;4960914;28;20035;-65
2023/07/06 09:20:56;;;;;;;1.75;0.82;;;29.40;57.30;;;;;;4962959;28;20099;-63
2023/07/06 09:23:22;;;;;;;2.42;0.80;;;29.30;57.70;;;;;;4955996;28;20058;-65
2023/07/06 09:25:48;;;;;;;2.33;0.93;;;29.10;56.20;;;;;;4958452;28;20493;-65
2023/07/06 09:28:18;;;;;;;7.85;1.00;;;29.70;56.70;;;;;;4964121;28;20031;-65
2023/07/06 09:30:45;;;;;;;4.53;1.30;;;30.00;56.00;;;;;;4931579;28;20039;-64
2023/07/06 09:33:24;;;;;;;1.60;0.90;;;30.20;55.60;;;;;;4956099;28;20026;-65
2023/07/06 09:35:55;;;;;;;2.03;0.90;;;29.60;57.20;;;;;;4957362;28;20019;-65
2023/07/06 09:38:24;;;;;;;2.30;0.80;;;28.80;56.40;;;;;;4960252;28;20388;-64
2023/07/06 09:40:50;;;;;;;2.53;1.00;;;28.30;58.50;;;;;;4952785;28;20886;-66
2023/07/06 09:43:27;;;;;;;4.60;1.17;;;28.50;57.70;;;;;;4960235;28;20034;-64
2023/07/06 09:45:55;;;;;;;3.00;0.90;;;29.40;58.10;;;;;;4968149;28;20054;-64
2023/07/06 09:48:28;;;;;;;2.22;1.10;;;29.80;57.80;;;;;;4959650;28;20030;-63
2023/07/06 09:50:59;;;;;;;2.15;0.90;;;30.60;55.70;;;;;;4956273;28;20055;-64
2023/07/06 09:53:31;;;;;;;3.40;0.98;;;30.80;55.40;;;;;;4964049;28;20037;-64
2023/07/06 09:55:56;;;;;;;2.08;1.10;;;30.90;54.10;;;;;;4959358;28;20078;-64
2023/07/06 09:58:27;;;;;;;2.75;1.30;;;31.20;53.20;;;;;;4960399;28;20145;-67
2023/07/06 10:01:01;;;;;;;2.30;0.98;;;30.80;55.40;;;;;;4963857;28;20456;-65
2023/07/06 10:03:57;;;;;;;2.58;0.63;;;31.70;56.60;;;;;;4964161;28;20042;-64
2023/07/06 10:06:44;;;;;;;1.88;0.85;;;31.80;54.30;;;;;;4943120;28;20051;-64
2023/07/06 10:09:25;;;;;;;3.65;1.25;;;31.50;54.30;;;;;;4964333;28;20035;-64
2023/07/06 10:11:55;;;;;;;2.85;1.00;;;30.00;55.70;;;;;;4963348;28;20027;-63
2023/07/06 10:14:50;;;;;;;1.92;0.70;;;28.80;56.30;;;;;;4957980;28;21011;-65
2023/07/06 10:17:35;;;;;;;1.85;0.98;;;27.80;57.50;;;;;;4962387;28;20066;-63
2023/07/06 10:20:18;;;;;;;1.40;0.80;;;27.50;57.20;;;;;;4955721;28;20023;-64
2023/07/06 10:22:55;;;;;;;2.80;0.60;;;27.50;59.40;;;;;;4964895;28;20054;-64
2023/07/06 10:25:33;;;;;;;2.15;0.90;;;27.00;59.60;;;;;;4965692;28;20061;-63
2023/07/06 10:28:16;;;;;;;0.65;0.52;;;26.70;59.60;;;;;;4954567;28;20039;-64
2023/07/06 10:30:47;;;;;;;7.23;2.37;;;27.00;58.00;;;;;;4939232;28;20130;-65
2023/07/06 10:33:21;;;;;;;3.15;0.85;;;27.00;57.80;;;;;;4961454;28;20086;-64
2023/07/06 10:35:50;;;;;;;1.08;0.57;;;27.60;59.20;;;;;;4957906;28;20037;-64
2023/07/06 10:38:16;;;;;;;1.30;0.82;;;27.70;57.30;;;;;;4963773;28;20031;-66
2023/07/06 10:40:49;;;;;;;2.05;0.80;;;28.00;56.80;;;;;;4962467;28;20051;-65
2023/07/06 10:43:14;;;;;;;1.35;0.90;;;27.50;57.60;;;;;;4956903;28;20122;-65
2023/07/06 10:45:42;;;;;;;2.05;0.70;;;26.60;58.50;;;;;;4960142;28;20109;-65
2023/07/06 10:48:26;;;;;;;1.98;0.73;;;26.20;58.60;;;;;;4957092;28;20038;-65
2023/07/06 10:51:06;;;;;;;4.38;0.88;;;26.00;60.00;;;;;;4951763;28;20673;-65
2023/07/06 10:53:43;;;;;;;9.07;0.80;;;25.80;59.70;;;;;;4959891;28;20027;-65
2023/07/06 10:56:12;;;;;;;3.42;0.95;;;25.70;60.40;;;;;;4960592;28;20030;-65
2023/07/06 10:58:55;;;;;;;1.65;0.80;;;25.90;61.80;;;;;;4950894;28;20109;-64
2023/07/06 11:01:27;;;;;;;3.97;0.75;;;26.40;58.20;;;;;;4961230;28;20033;-63
2023/07/06 11:03:54;;;;;;;0.93;0.75;;;27.00;57.30;;;;;;4958195;28;20031;-64
2023/07/06 11:06:41;;;;;;;2.38;0.90;;;26.60;59.40;;;;;;4950649;28;20030;-63
2023/07/06 11:09:09;;;;;;;2.40;0.70;;;26.80;59.00;;;;;;4952864;28;20484;-63
2023/07/06 11:11:39;;;;;;;0.88;0.70;;;26.60;58.70;;;;;;4953700;28;20039;-64
2023/07/06 11:14:31;;;;;;;0.82;0.50;;;26.40;59.10;;;;;;4956702;28;20075;-66
2023/07/06 11:17:19;;;;;;;1.92;1.17;;;25.90;59.00;;;;;;4954609;28;20031;-63
2023/07/06 11:20:01;;;;;;;2.25;0.80;;;26.20;59.80;;;;;;4958312;28;20420;-64
2023/07/06 11:22:28;;;;;;;2.13;0.93;;;26.30;59.60;;;;;;4957934;28;20071;-65
2023/07/06 11:24:59;;;;;;;1.98;0.73;;;26.70;60.20;;;;;;4959407;28;20520;-63
2023/07/06 11:27:30;;;;;;;0.98;0.60;;;26.50;57.90;;;;;;4954588;28;20048;-63
2023/07/06 11:30:39;;;;;;;3.50;0.85;;;26.00;59.90;;;;;;4937362;28;20050;-63
2023/07/06 11:33:55;;;;;;;2.70;1.00;;;25.30;60.60;;;;;;4946995;28;20501;-64
2023/07/06 11:36:39;;;;;;;2.22;1.10;;;25.10;61.70;;;;;;4923313;28;20067;-65
2023/07/06 11:39:11;;;;;;;3.28;1.10;;;24.80;62.00;;;;;;4966285;28;20427;-65
2023/07/06 11:41:53;;;;;;;3.95;1.05;;;24.90;61.50;;;;;;4966745;28;20448;-65
2023/07/06 11:44:24;;;;;;;5.28;1.20;;;25.50;62.40;;;;;;4961021;28;20105;-63
2023/07/06 11:47:02;;;;;;;2.50;0.82;;;25.50;62.20;;;;;;4966814;28;20121;-65
2023/07/06 11:49:44;;;;;;;2.67;1.00;;;25.00;61.90;;;;;;4974698;28;20030;-63
2023/07/06 11:52:17;;;;;;;1.77;1.15;;;25.10;60.70;;;;;;4966032;28;20034;-64
2023/07/06 11:54:51;;;;;;;3.15;0.90;;;25.00;62.40;;;;;;4969989;28;20106;-65
2023/07/06 11:57:28;;;;;;;1.42;0.75;;;25.30;62.40;;;;;;4963495;28;20138;-64
2023/07/06 12:00:32;;;;;;;2.17;0.88;;;25.00;63.20;;;;;;4968920;28;20035;-65
2023/07/06 12:03:04;;;;;;;2.22;0.80;;;25.40;61.10;;;;;;4968357;28;20463;-65
2023/07/06 12:05:38;;;;;;;5.70;1.00;;;26.10;59.20;;;;;;4956794;28;20083;-65
2023/07/06 12:08:37;;;;;;;2.50;0.80;;;26.10;61.00;;;;;;4962560;28;20058;-65
2023/07/06 12:11:15;;;;;;;1.83;0.98;;;25.90;59.80;;;;;;4972297;28;20499;-65
2023/07/06 12:13:44;;;;;;;7.00;1.10;;;25.70;60.70;;;;;;4967340;28;20038;-66
2023/07/06 12:16:13;;;;;;;5.13;0.68;;;25.50;59.20;;;;;;4969432;28;20041;-64
2023/07/06 12:18:41;;;;;;;1.88;0.70;;;25.40;59.30;;;;;;4956698;28;20036;-65
2023/07/06 12:21:28;;;;;;;2.72;0.73;;;25.50;62.50;;;;;;4957773;28;20030;-65
2023/07/06 12:23:58;;;;;;;1.92;0.80;;;25.60;59.10;;;;;;4961147;28;20070;-64
2023/07/06 12:26:24;;;;;;;1.27;0.68;;;25.50;59.50;;;;;;4970065;28;20408;-64
2023/07/06 12:28:50;;;;;;;1.73;0.80;;;25.80;60.90;;;;;;4969790;28;20038;-65
2023/07/06 12:31:16;;;;;;;3.53;1.15;;;26.00;61.10;;;;;;4940642;28;20047;-65
2023/07/06 12:33:43;;;;;;;2.83;1.30;;;25.90;60.00;;;;;;4969327;28;20019;-65
2023/07/06 12:36:12;;;;;;;2.60;0.70;;;25.90;60.10;;;;;;4970527;28;20027;-65
2023/07/06 12:38:39;;;;;;;1.35;0.80;;;25.90;61.10;;;;;;4968644;28;20027;-65
2023/07/06 12:41:21;;;;;;;1.55;0.60;;;25.90;60.80;;;;;;4972477;28;20022;-64
2023/07/06 12:43:51;;;;;;;7.10;0.70;;;25.90;61.20;;;;;;4971822;28;20432;-66
2023/07/06 12:46:23;;;;;;;1.33;0.70;;;25.60;60.30;;;;;;4966705;28;20058;-66
2023/07/06 12:48:53;;;;;;;2.20;0.80;;;25.80;60.00;;;;;;4957023;28;20042;-65
2023/07/06 12:51:23;;;;;;;0.52;0.52;;;26.00;59.30;;;;;;4970320;28;20035;-65
2023/07/06 12:53:50;;;;;;;2.53;0.88;;;26.10;60.10;;;;;;4965618;28;20101;-66
2023/07/06 12:56:21;;;;;;;3.63;1.27;;;26.00;60.70;;;;;;4972429;28;20110;-66
2023/07/06 12:58:57;;;;;;;2.97;0.80;;;25.90;62.70;;;;;;4967780;28;20712;-65
2023/07/06 13:01:29;;;;;;;2.17;0.77;;;25.90;60.00;;;;;;4969697;28;20506;-65
2023/07/06 13:04:07;;;;;;;2.10;0.90;;;25.70;58.50;;;;;;4960589;28;20109;-65
2023/07/06 13:06:44;;;;;;;2.35;0.90;;;25.50;58.90;;;;;;4968289;28;20170;-65